createdAt,value
2023-01-19T00:00:27.711Z,1.53
2023-01-19T00:02:54.869Z,1.51
2023-01-19T00:05:21.465Z,1.45
2023-01-19T00:07:48.130Z,1.33
2023-01-19T00:10:14.626Z,1.34
2023-01-19T00:12:40.973Z,1.33
2023-01-19T00:15:08.197Z,1.28
2023-01-19T00:17:35.052Z,1.24
2023-01-19T00:20:01.496Z,1.23
2023-01-19T00:22:27.900Z,1.19
2023-01-19T00:24:54.294Z,1.24
2023-01-19T00:27:20.754Z,1.32
2023-01-19T00:29:47.155Z,1.41
2023-01-19T00:32:13.598Z,1.25
2023-01-19T00:34:42.647Z,1.30
2023-01-19T00:37:10.112Z,1.24
2023-01-19T00:39:36.658Z,1.24
2023-01-19T00:42:22.110Z,1.27
2023-01-19T00:44:48.702Z,1.28
2023-01-19T00:47:15.089Z,1.26
2023-01-19T00:49:41.539Z,1.32
2023-01-19T00:52:08.096Z,1.38
2023-01-19T00:54:34.472Z,1.36
2023-01-19T00:57:01.324Z,1.35
2023-01-19T00:59:27.769Z,1.25
2023-01-19T01:01:54.248Z,1.21
2023-01-19T01:04:20.689Z,1.20
2023-01-19T01:06:47.212Z,1.21
2023-01-19T01:09:13.789Z,1.19
2023-01-19T01:11:43.657Z,1.17
2023-01-19T01:14:12.185Z,1.18
2023-01-19T01:16:39.515Z,1.22
2023-01-19T01:19:06.165Z,1.30
2023-01-19T01:21:34.654Z,1.36
2023-01-19T01:24:01.777Z,1.33
2023-01-19T01:26:28.371Z,1.32
2023-01-19T01:28:54.787Z,1.33
2023-01-19T01:31:21.185Z,1.36
2023-01-19T01:33:47.599Z,1.39
2023-01-19T01:36:14.195Z,1.31
2023-01-19T01:38:41.558Z,1.35
2023-01-19T01:41:09.042Z,1.44
2023-01-19T01:43:50.858Z,1.49
2023-01-19T01:46:18.070Z,1.44
2023-01-19T01:49:00.516Z,1.48
2023-01-19T01:51:29.934Z,1.54
2023-01-19T01:54:14.735Z,1.63
2023-01-19T01:56:46.963Z,1.62
2023-01-19T01:59:25.745Z,1.68
2023-01-19T02:02:15.970Z,1.65
2023-01-19T02:04:47.745Z,1.79
2023-01-19T02:07:40.012Z,1.81
2023-01-19T02:10:25.519Z,1.78
2023-01-19T02:13:10.752Z,1.69
2023-01-19T02:15:37.105Z,1.61
2023-01-19T02:18:03.595Z,1.60
2023-01-19T02:20:31.714Z,1.58
2023-01-19T02:23:03.770Z,1.51
2023-01-19T02:25:30.693Z,1.53
2023-01-19T02:27:57.362Z,1.54
2023-01-19T02:30:24.152Z,1.52
2023-01-19T02:32:50.677Z,1.54
2023-01-19T02:35:17.384Z,1.51
2023-01-19T02:37:44.977Z,1.58
2023-01-19T02:40:15.053Z,1.54
2023-01-19T02:42:53.014Z,1.58
2023-01-19T02:45:21.891Z,1.61
2023-01-19T02:47:51.541Z,1.58
2023-01-19T02:50:50.534Z,1.57
2023-01-19T02:53:45.481Z,1.51
2023-01-19T02:56:30.233Z,1.50
2023-01-19T02:59:33.631Z,1.56
2023-01-19T03:02:16.432Z,1.56
2023-01-19T03:05:00.272Z,1.65
2023-01-19T03:08:04.411Z,1.68
2023-01-19T03:11:05.142Z,1.65
2023-01-19T03:13:52.856Z,1.67
2023-01-19T03:16:21.808Z,1.63
2023-01-19T03:18:55.724Z,1.66
2023-01-19T03:21:27.475Z,1.72
2023-01-19T03:23:58.089Z,1.77
2023-01-19T03:26:29.755Z,1.73
2023-01-19T03:29:00.446Z,1.79
2023-01-19T03:31:31.922Z,1.70
2023-01-19T03:34:03.941Z,1.69
2023-01-19T03:36:34.725Z,1.67
2023-01-19T03:39:04.384Z,1.76
2023-01-19T03:41:34.203Z,1.71
2023-01-19T03:44:01.677Z,1.68
2023-01-19T03:46:28.682Z,1.65
2023-01-19T03:48:55.186Z,1.65
2023-01-19T03:51:21.977Z,1.68
2023-01-19T03:53:49.987Z,1.76
2023-01-19T03:56:24.578Z,1.81
2023-01-19T03:58:51.650Z,1.83
2023-01-19T04:01:22.720Z,1.91
2023-01-19T04:03:50.445Z,1.90
2023-01-19T04:06:17.234Z,1.88
2023-01-19T04:08:43.662Z,1.96
2023-01-19T04:11:10.281Z,2.05
2023-01-19T04:13:36.898Z,2.06
2023-01-19T04:16:04.578Z,2.08
2023-01-19T04:18:34.704Z,2.11
2023-01-19T04:21:03.982Z,2.10
2023-01-19T04:23:30.759Z,2.08
2023-01-19T04:26:02.864Z,2.15
2023-01-19T04:28:29.865Z,2.20
2023-01-19T04:30:56.260Z,2.25
2023-01-19T04:33:22.990Z,2.22
2023-01-19T04:35:52.301Z,2.18
2023-01-19T04:38:20.551Z,2.22
2023-01-19T04:40:48.479Z,2.22
2023-01-19T04:43:15.224Z,2.18
2023-01-19T04:45:41.808Z,2.28
2023-01-19T04:48:08.304Z,2.32
2023-01-19T04:50:34.697Z,2.32
2023-01-19T04:53:02.357Z,2.32
2023-01-19T04:55:28.910Z,2.33
2023-01-19T04:57:55.552Z,2.35
2023-01-19T05:00:22.233Z,2.36
2023-01-19T05:02:48.814Z,2.46
2023-01-19T05:05:15.487Z,2.52
2023-01-19T05:07:42.798Z,2.54
2023-01-19T05:10:09.855Z,2.61
2023-01-19T05:12:36.499Z,2.55
2023-01-19T05:15:03.483Z,2.54
2023-01-19T05:17:30.269Z,2.41
2023-01-19T05:19:56.667Z,2.25
2023-01-19T05:22:23.043Z,2.21
2023-01-19T05:24:49.537Z,2.20
2023-01-19T05:27:16.016Z,2.17
2023-01-19T05:29:42.408Z,2.18
2023-01-19T05:32:08.926Z,2.15
2023-01-19T05:34:35.296Z,2.24
2023-01-19T05:37:01.683Z,2.22
2023-01-19T05:39:28.601Z,2.26
2023-01-19T05:41:54.965Z,2.29
2023-01-19T05:44:22.215Z,2.20
2023-01-19T05:46:48.627Z,2.22
2023-01-19T05:49:15.116Z,2.23
2023-01-19T05:51:45.235Z,2.18
2023-01-19T05:54:17.281Z,2.11
2023-01-19T05:56:43.815Z,2.07
2023-01-19T05:59:10.857Z,2.08
2023-01-19T06:01:39.902Z,2.01
2023-01-19T06:04:06.665Z,2.02
2023-01-19T06:06:33.024Z,2.04
2023-01-19T06:08:59.433Z,2.01
2023-01-19T06:11:26.085Z,1.95
2023-01-19T06:13:52.891Z,1.88
2023-01-19T06:16:19.473Z,1.90
2023-01-19T06:18:52.361Z,1.87
2023-01-19T06:21:18.753Z,1.88
2023-01-19T06:23:45.146Z,1.91
2023-01-19T06:26:11.589Z,1.86
2023-01-19T06:28:37.934Z,1.83
2023-01-19T06:31:04.492Z,1.87
2023-01-19T06:33:31.437Z,1.91
2023-01-19T06:35:57.807Z,1.91
2023-01-19T06:38:24.275Z,2.17
2023-01-19T06:40:58.541Z,1.99
2023-01-19T06:43:26.234Z,1.91
2023-01-19T06:45:52.917Z,1.88
2023-01-19T06:48:19.984Z,1.79
2023-01-19T06:50:47.248Z,1.85
2023-01-19T06:53:16.659Z,1.86
2023-01-19T06:55:46.514Z,1.86
2023-01-19T06:58:13.543Z,1.92
2023-01-19T07:00:40.336Z,1.94
2023-01-19T07:03:21.349Z,1.97
2023-01-19T07:05:51.564Z,2.04
2023-01-19T07:08:18.268Z,2.03
2023-01-19T07:11:25.948Z,2.05
2023-01-19T07:13:31.758Z,2.02
2023-01-19T07:15:58.233Z,1.97
2023-01-19T07:18:24.575Z,1.96
2023-01-19T07:20:51.992Z,1.97
2023-01-19T07:23:18.381Z,2.00
2023-01-19T07:25:46.285Z,1.96
2023-01-19T07:28:15.666Z,1.94
2023-01-19T07:30:43.871Z,1.82
2023-01-19T07:33:10.233Z,1.82
2023-01-19T07:35:36.565Z,1.84
2023-01-19T07:38:03.396Z,1.89
2023-01-19T07:40:29.908Z,1.93
2023-01-19T07:42:56.293Z,1.95
2023-01-19T07:45:22.770Z,1.98
2023-01-19T07:47:49.908Z,1.96
2023-01-19T07:50:17.625Z,1.90
2023-01-19T07:52:44.696Z,1.90
2023-01-19T07:55:11.067Z,1.90
2023-01-19T07:57:37.493Z,1.93
2023-01-19T08:00:05.020Z,1.97
2023-01-19T08:02:33.986Z,2.05
2023-01-19T08:05:00.341Z,2.02
2023-01-19T08:07:26.849Z,2.04
2023-01-19T08:09:53.366Z,2.09
2023-01-19T08:12:19.849Z,2.04
2023-01-19T08:14:46.328Z,2.06
2023-01-19T08:17:13.564Z,2.19
2023-01-19T08:19:41.598Z,2.24
2023-01-19T08:22:08.166Z,2.27
2023-01-19T08:24:34.541Z,2.28
2023-01-19T08:27:02.390Z,2.29
2023-01-19T08:29:32.077Z,2.28
2023-01-19T08:32:00.114Z,2.32
2023-01-19T08:34:27.139Z,2.35
2023-01-19T08:36:54.018Z,2.42
2023-01-19T08:39:20.485Z,2.47
2023-01-19T08:41:46.885Z,2.49
2023-01-19T08:44:13.309Z,2.51
2023-01-19T08:46:39.698Z,2.57
2023-01-19T08:49:06.152Z,2.57
2023-01-19T08:51:32.894Z,2.54
2023-01-19T08:53:59.296Z,2.51
2023-01-19T08:56:25.754Z,2.53
2023-01-19T08:59:07.803Z,2.46
2023-01-19T09:01:36.971Z,2.51
2023-01-19T09:04:03.593Z,2.52
2023-01-19T09:06:29.994Z,2.52
2023-01-19T09:08:57.508Z,2.49
2023-01-19T09:11:23.898Z,2.50
2023-01-19T09:13:50.573Z,2.55
2023-01-19T09:16:16.988Z,2.60
2023-01-19T09:18:45.033Z,2.61
2023-01-19T09:21:11.761Z,2.60
2023-01-19T09:23:38.227Z,2.53
2023-01-19T09:26:05.888Z,2.61
2023-01-19T09:28:32.460Z,2.63
2023-01-19T09:30:59.550Z,2.66
2023-01-19T09:33:35.628Z,2.75
2023-01-19T09:36:02.292Z,2.77
2023-01-19T09:38:32.557Z,2.77
2023-01-19T09:41:00.325Z,2.74
2023-01-19T09:43:41.399Z,2.71
2023-01-19T09:46:30.142Z,2.66
2023-01-19T09:48:59.653Z,2.71
2023-01-19T09:51:28.869Z,2.77
2023-01-19T09:54:14.523Z,2.81
2023-01-19T09:56:42.358Z,2.81
2023-01-19T09:59:29.865Z,2.80
2023-01-19T10:02:02.295Z,2.76
2023-01-19T10:04:41.939Z,2.71
2023-01-19T10:07:34.695Z,2.82
2023-01-19T10:10:20.757Z,2.84
2023-01-19T10:13:15.277Z,2.87
2023-01-19T10:15:47.912Z,2.92
2023-01-19T10:18:36.802Z,2.97
2023-01-19T10:21:11.008Z,2.95
2023-01-19T10:23:52.183Z,2.94
2023-01-19T10:26:23.906Z,2.96
2023-01-19T10:28:55.700Z,3.03
2023-01-19T10:31:24.233Z,3.05
2023-01-19T10:33:52.202Z,3.03
2023-01-19T10:36:24.319Z,3.06
2023-01-19T10:38:51.900Z,3.00
2023-01-19T10:41:24.339Z,3.01
2023-01-19T10:43:59.484Z,3.00
2023-01-19T10:46:45.562Z,3.07
2023-01-19T10:49:37.845Z,3.13
2023-01-19T10:52:08.027Z,3.02
2023-01-19T10:54:37.287Z,3.09
2023-01-19T10:57:08.043Z,3.15
2023-01-19T10:59:46.544Z,3.19
2023-01-19T11:02:49.272Z,3.17
2023-01-19T11:05:27.896Z,3.23
2023-01-19T11:07:54.324Z,3.33
2023-01-19T11:10:29.104Z,3.36
2023-01-19T11:13:12.406Z,3.38
2023-01-19T11:15:44.214Z,3.41
2023-01-19T11:18:30.522Z,3.50
2023-01-19T11:21:02.130Z,3.49
2023-01-19T11:23:32.492Z,3.45
2023-01-19T11:26:01.554Z,3.48
2023-01-19T11:28:35.577Z,3.52
2023-01-19T11:31:15.152Z,3.51
2023-01-19T11:33:49.049Z,3.52
2023-01-19T11:36:20.978Z,3.63
2023-01-19T11:38:52.864Z,3.66
2023-01-19T11:41:27.826Z,3.72
2023-01-19T11:44:17.283Z,3.81
2023-01-19T11:46:47.985Z,3.80
2023-01-19T11:49:27.328Z,3.80
2023-01-19T11:52:04.494Z,3.86
2023-01-19T11:54:37.074Z,3.88
2023-01-19T11:57:11.743Z,3.93
2023-01-19T11:59:38.203Z,4.00
2023-01-19T12:02:16.572Z,4.04
2023-01-19T12:04:44.511Z,4.12
2023-01-19T12:07:13.305Z,4.15
2023-01-19T12:09:45.447Z,4.16
2023-01-19T12:12:27.336Z,4.18
2023-01-19T12:15:05.031Z,4.26
2023-01-19T12:17:57.822Z,4.20
2023-01-19T12:20:24.086Z,4.27
2023-01-19T12:23:18.286Z,4.33
2023-01-19T12:26:01.561Z,4.33
2023-01-19T12:28:33.768Z,4.32
2023-01-19T12:31:01.699Z,4.39
2023-01-19T12:33:28.912Z,4.43
2023-01-19T12:36:00.732Z,4.39
2023-01-19T12:38:35.293Z,4.33
2023-01-19T12:41:22.053Z,4.40
2023-01-19T12:44:09.350Z,4.33
2023-01-19T12:46:38.188Z,4.36
2023-01-19T12:49:26.271Z,4.43
2023-01-19T12:52:11.842Z,4.49
2023-01-19T12:54:43.417Z,4.51
2023-01-19T12:57:24.706Z,4.50
2023-01-19T13:00:07.695Z,4.50
2023-01-19T13:02:46.231Z,4.50
2023-01-19T13:05:21.840Z,4.52
2023-01-19T13:08:06.651Z,4.55
2023-01-19T13:11:09.562Z,4.57
2023-01-19T13:13:38.182Z,4.79
2023-01-19T13:16:20.200Z,4.89
2023-01-19T13:18:49.779Z,4.86
2023-01-19T13:21:35.342Z,4.79
2023-01-19T13:24:07.611Z,4.82
2023-01-19T13:26:38.560Z,4.85
2023-01-19T13:29:13.993Z,4.79
2023-01-19T13:31:42.985Z,4.71
2023-01-19T13:34:17.050Z,4.59
2023-01-19T13:36:46.410Z,4.61
2023-01-19T13:39:20.164Z,4.54
2023-01-19T13:41:47.921Z,4.56
2023-01-19T13:44:25.573Z,4.52
2023-01-19T13:46:53.905Z,4.55
2023-01-19T13:49:23.046Z,4.62
2023-01-19T13:52:04.798Z,4.53
2023-01-19T13:54:31.441Z,4.39
2023-01-19T13:56:57.984Z,4.29
2023-01-19T13:59:24.385Z,4.27
2023-01-19T14:01:51.677Z,4.30
2023-01-19T14:04:28.683Z,4.38
2023-01-19T14:07:04.811Z,4.46
2023-01-19T14:09:31.942Z,4.39
2023-01-19T14:12:06.495Z,4.34
2023-01-19T14:14:33.278Z,4.42
2023-01-19T14:16:59.978Z,4.49
2023-01-19T14:19:26.450Z,4.63
2023-01-19T14:22:03.963Z,4.81
2023-01-19T14:24:33.146Z,4.78
2023-01-19T14:27:23.021Z,4.80
2023-01-19T14:29:53.499Z,4.84
2023-01-19T14:32:22.902Z,4.86
2023-01-19T14:35:09.836Z,4.72
2023-01-19T14:37:38.129Z,4.62
2023-01-19T14:40:21.607Z,4.59
2023-01-19T14:42:57.424Z,4.56
2023-01-19T14:45:30.297Z,4.53
2023-01-19T14:48:05.160Z,4.54
2023-01-19T14:50:37.854Z,4.48
2023-01-19T14:53:18.165Z,4.49
2023-01-19T14:55:51.172Z,4.47
2023-01-19T14:58:20.302Z,4.41
2023-01-19T15:00:48.886Z,4.24
2023-01-19T15:03:15.991Z,4.28
2023-01-19T15:05:46.827Z,4.36
2023-01-19T15:08:25.457Z,4.39
2023-01-19T15:10:51.991Z,4.41
2023-01-19T15:13:21.919Z,4.43
2023-01-19T15:15:49.934Z,4.34
2023-01-19T15:18:27.656Z,4.34
2023-01-19T15:20:55.161Z,4.30
2023-01-19T15:23:21.535Z,4.29
2023-01-19T15:25:48.772Z,4.34
2023-01-19T15:28:19.451Z,4.37
2023-01-19T15:30:46.102Z,4.30
2023-01-19T15:33:19.556Z,4.21
2023-01-19T15:35:45.907Z,4.15
2023-01-19T15:38:12.301Z,4.20
2023-01-19T15:40:38.830Z,4.20
2023-01-19T15:43:05.476Z,4.26
2023-01-19T15:45:48.378Z,4.31
2023-01-19T15:48:14.779Z,4.34
2023-01-19T15:50:43.662Z,4.36
2023-01-19T15:53:14.428Z,4.39
2023-01-19T15:55:40.966Z,4.43
2023-01-19T15:58:07.299Z,4.44
2023-01-19T16:00:34.926Z,4.40
2023-01-19T16:03:02.259Z,4.37
2023-01-19T16:05:41.993Z,4.36
2023-01-19T16:08:09.191Z,4.33
2023-01-19T16:10:35.616Z,4.40
2023-01-19T16:13:03.823Z,4.31
2023-01-19T16:15:30.362Z,4.31
2023-01-19T16:17:56.683Z,4.27
2023-01-19T16:20:23.116Z,4.28
2023-01-19T16:22:49.602Z,4.27
2023-01-19T16:25:15.988Z,4.29
2023-01-19T16:27:42.397Z,4.30
2023-01-19T16:30:12.246Z,4.21
2023-01-19T16:32:38.844Z,4.18
2023-01-19T16:35:05.801Z,4.16
2023-01-19T16:37:32.204Z,4.21
2023-01-19T16:39:58.629Z,4.22
2023-01-19T16:42:25.355Z,4.13
2023-01-19T16:44:51.783Z,4.16
2023-01-19T16:47:18.265Z,4.27
2023-01-19T16:49:44.618Z,4.22
2023-01-19T16:52:11.057Z,4.16
2023-01-19T16:54:39.350Z,4.18
2023-01-19T16:57:05.857Z,4.21
2023-01-19T16:59:32.494Z,4.24
2023-01-19T17:01:59.149Z,4.24
2023-01-19T17:04:27.055Z,4.14
2023-01-19T17:06:54.675Z,4.16
2023-01-19T17:09:21.303Z,4.18
2023-01-19T17:11:47.938Z,4.22
2023-01-19T17:14:17.285Z,4.23
2023-01-19T17:16:44.157Z,4.20
2023-01-19T17:19:14.806Z,4.19
2023-01-19T17:21:41.192Z,4.21
2023-01-19T17:24:07.643Z,4.17
2023-01-19T17:26:34.052Z,4.15
2023-01-19T17:29:02.073Z,4.18
2023-01-19T17:31:44.394Z,4.25
2023-01-19T17:34:10.796Z,4.24
2023-01-19T17:36:37.951Z,4.22
2023-01-19T17:39:06.931Z,4.18
2023-01-19T17:41:35.345Z,4.23
2023-01-19T17:44:03.876Z,4.24
2023-01-19T17:46:31.136Z,4.28
2023-01-19T17:49:00.288Z,4.17
2023-01-19T17:51:27.698Z,4.23
2023-01-19T17:53:55.030Z,4.28
2023-01-19T17:56:27.352Z,4.29
2023-01-19T17:58:53.993Z,4.31
2023-01-19T18:01:22.352Z,4.31
2023-01-19T18:03:49.010Z,4.30
2023-01-19T18:06:15.756Z,4.32
2023-01-19T18:08:43.993Z,4.31
2023-01-19T18:11:10.789Z,4.39
2023-01-19T18:13:37.997Z,4.35
2023-01-19T18:16:08.263Z,4.34
2023-01-19T18:18:35.479Z,4.37
2023-01-19T18:21:04.084Z,4.34
2023-01-19T18:23:30.521Z,4.32
2023-01-19T18:26:05.453Z,4.35
2023-01-19T18:28:32.635Z,4.42
2023-01-19T18:30:59.483Z,4.35
2023-01-19T18:33:27.704Z,4.32
2023-01-19T18:35:55.204Z,4.31
2023-01-19T18:38:21.668Z,4.28
2023-01-19T18:40:48.293Z,4.26
2023-01-19T18:43:15.082Z,4.30
2023-01-19T18:45:42.037Z,4.31
2023-01-19T18:48:14.478Z,4.30
2023-01-19T18:50:40.922Z,4.18
2023-01-19T18:53:07.329Z,4.16
2023-01-19T18:55:33.789Z,4.21
2023-01-19T18:58:00.436Z,4.19
2023-01-19T19:00:26.917Z,4.15
2023-01-19T19:02:55.562Z,4.06
2023-01-19T19:05:21.970Z,4.02
2023-01-19T19:07:48.526Z,3.96
2023-01-19T19:10:15.542Z,3.97
2023-01-19T19:12:41.960Z,4.02
2023-01-19T19:15:09.113Z,4.03
2023-01-19T19:17:35.736Z,4.05
2023-01-19T19:20:02.749Z,4.02
2023-01-19T19:22:29.143Z,3.97
2023-01-19T19:24:55.477Z,3.97
2023-01-19T19:27:21.803Z,3.99
2023-01-19T19:29:48.687Z,4.00
2023-01-19T19:32:20.222Z,3.95
2023-01-19T19:34:53.185Z,3.95
2023-01-19T19:37:19.948Z,3.88
2023-01-19T19:39:47.537Z,3.87
2023-01-19T19:42:13.929Z,3.91
2023-01-19T19:44:40.406Z,3.97
2023-01-19T19:47:06.896Z,3.87
2023-01-19T19:49:33.453Z,3.85
2023-01-19T19:52:00.005Z,3.78
2023-01-19T19:54:26.386Z,3.73
2023-01-19T19:56:53.683Z,3.69
2023-01-19T19:59:31.534Z,3.72
2023-01-19T20:01:57.968Z,3.83
2023-01-19T20:04:25.281Z,3.89
2023-01-19T20:06:51.695Z,3.93
2023-01-19T20:09:18.074Z,3.95
2023-01-19T20:11:46.602Z,3.85
2023-01-19T20:14:15.995Z,3.83
2023-01-19T20:16:42.895Z,3.85
2023-01-19T20:19:09.576Z,3.86
2023-01-19T20:21:37.597Z,3.82
2023-01-19T20:24:06.988Z,3.78
2023-01-19T20:26:35.926Z,3.78
2023-01-19T20:29:06.747Z,3.75
2023-01-19T20:31:40.073Z,3.80
2023-01-19T20:34:09.887Z,3.76
2023-01-19T20:36:36.781Z,3.67
2023-01-19T20:39:08.425Z,3.57
2023-01-19T20:41:42.781Z,3.66
2023-01-19T20:44:18.761Z,3.67
2023-01-19T20:46:45.629Z,3.65
2023-01-19T20:49:12.268Z,3.62
2023-01-19T20:51:43.224Z,3.55
2023-01-19T20:54:11.184Z,3.51
2023-01-19T20:56:38.206Z,3.47
2023-01-19T20:59:04.546Z,3.50
2023-01-19T21:01:31.248Z,3.55
2023-01-19T21:03:57.705Z,3.59
2023-01-19T21:06:24.864Z,3.54
2023-01-19T21:08:51.790Z,3.60
2023-01-19T21:11:20.814Z,3.59
2023-01-19T21:13:48.205Z,3.58
2023-01-19T21:16:15.477Z,3.57
2023-01-19T21:18:41.894Z,3.57
2023-01-19T21:21:14.955Z,3.55
2023-01-19T21:23:47.604Z,3.56
2023-01-19T21:26:14.578Z,3.53
2023-01-19T21:28:41.491Z,3.45
2023-01-19T21:31:10.133Z,3.47
2023-01-19T21:33:36.472Z,3.45
2023-01-19T21:36:03.080Z,3.46
2023-01-19T21:38:30.069Z,3.41
2023-01-19T21:40:57.580Z,3.35
2023-01-19T21:43:25.488Z,3.31
2023-01-19T21:45:52.002Z,3.33
2023-01-19T21:48:19.614Z,3.32
2023-01-19T21:50:46.097Z,3.31
2023-01-19T21:53:12.545Z,3.31
2023-01-19T21:55:43.570Z,3.31
2023-01-19T21:58:09.917Z,3.28
2023-01-19T22:00:36.286Z,3.20
2023-01-19T22:03:04.423Z,3.16
2023-01-19T22:05:36.783Z,3.18
2023-01-19T22:08:04.343Z,3.14
2023-01-19T22:10:30.781Z,3.12
2023-01-19T22:12:57.138Z,3.12
2023-01-19T22:15:23.573Z,3.09
2023-01-19T22:17:49.933Z,3.06
2023-01-19T22:20:16.556Z,3.11
2023-01-19T22:22:42.915Z,3.08
2023-01-19T22:25:09.652Z,3.11
2023-01-19T22:27:37.408Z,3.17
2023-01-19T22:30:04.040Z,3.20
2023-01-19T22:32:31.293Z,3.08
2023-01-19T22:34:57.628Z,3.09
2023-01-19T22:37:23.975Z,3.09
2023-01-19T22:39:50.393Z,3.19
2023-01-19T22:42:16.786Z,3.28
2023-01-19T22:44:43.517Z,3.24
2023-01-19T22:47:10.111Z,3.23
2023-01-19T22:49:36.614Z,3.22
2023-01-19T22:52:03.100Z,3.20
2023-01-19T22:54:30.310Z,3.15
2023-01-19T22:56:56.690Z,3.21
2023-01-19T22:59:23.036Z,3.30
2023-01-19T23:01:50.020Z,3.29
2023-01-19T23:04:16.633Z,3.29
2023-01-19T23:06:43.649Z,3.18
2023-01-19T23:09:12.731Z,3.22
2023-01-19T23:11:41.619Z,3.20
2023-01-19T23:14:12.274Z,3.24
2023-01-19T23:16:38.782Z,3.24
2023-01-19T23:19:05.486Z,3.18
2023-01-19T23:21:32.450Z,3.21
2023-01-19T23:24:01.655Z,3.16
2023-01-19T23:26:30.707Z,3.22
2023-01-19T23:28:59.527Z,3.20
2023-01-19T23:31:27.215Z,3.24
2023-01-19T23:33:56.733Z,3.27
2023-01-19T23:36:25.972Z,3.15
2023-01-19T23:39:04.953Z,3.15
2023-01-19T23:41:34.511Z,3.09
2023-01-19T23:44:01.471Z,3.04
2023-01-19T23:46:28.684Z,3.04
2023-01-19T23:48:55.498Z,3.08
2023-01-19T23:51:24.853Z,3.07
2023-01-19T23:53:51.842Z,3.08
2023-01-19T23:56:20.985Z,3.10
2023-01-19T23:58:52.074Z,3.12
